Time;durP1;ratioP1;P1;durP2;ratioP2;P2;SDS_P1;SDS_P2;PMS_P1;PMS_P2;Temp;Humidity;BMP_temperature;BMP_pressure;BME280_temperature;BME280_humidity;BME280_pressure;Samples;Min_cycle;Max_cycle;Signal;HPM_P1;HPM_P2
2022/05/15 00:02:40;;;;;;;11.25;3.95;;;20.10;47.40;;;;;;5087078;28;20369;-59
2022/05/15 00:05:07;;;;;;;5.40;3.30;;;20.00;47.30;;;;;;5061889;28;20044;-61
2022/05/15 00:07:34;;;;;;;6.28;3.75;;;20.00;47.40;;;;;;5060973;28;20033;-61
2022/05/15 00:10:00;;;;;;;6.38;3.53;;;19.90;47.50;;;;;;5084027;28;21235;-60
2022/05/15 00:12:25;;;;;;;13.25;3.72;;;19.80;47.70;;;;;;5083742;28;20047;-62
2022/05/15 00:14:51;;;;;;;6.78;3.58;;;19.80;47.90;;;;;;5082708;28;20099;-59
2022/05/15 00:17:17;;;;;;;7.88;3.67;;;19.80;47.90;;;;;;5079926;28;20062;-60
2022/05/15 00:19:43;;;;;;;8.57;3.50;;;19.80;47.90;;;;;;5066153;28;20017;-60
2022/05/15 00:22:08;;;;;;;6.50;3.50;;;19.90;47.90;;;;;;5084457;28;20481;-60
2022/05/15 00:24:36;;;;;;;11.68;3.85;;;19.90;47.70;;;;;;5085528;28;20047;-57
2022/05/15 00:27:02;;;;;;;7.38;3.53;;;20.00;47.50;;;;;;5081293;28;20024;-61
2022/05/15 00:29:29;;;;;;;8.90;3.35;;;20.00;47.40;;;;;;5068564;28;20374;-59
2022/05/15 00:31:55;;;;;;;7.13;3.42;;;20.00;47.30;;;;;;5080309;28;20096;-60
2022/05/15 00:34:21;;;;;;;9.48;3.85;;;20.10;47.30;;;;;;5064426;28;20036;-59
2022/05/15 00:36:47;;;;;;;11.00;4.00;;;20.10;47.20;;;;;;5079811;28;20028;-58
2022/05/15 00:39:13;;;;;;;7.93;3.42;;;20.10;47.20;;;;;;5078066;28;20593;-58
2022/05/15 00:41:39;;;;;;;7.00;3.75;;;20.10;47.10;;;;;;5080313;28;20024;-58
2022/05/15 00:44:06;;;;;;;14.88;5.57;;;20.10;47.10;;;;;;5083450;28;20512;-58
2022/05/15 00:46:36;;;;;;;10.93;4.72;;;20.10;47.10;;;;;;5077770;28;20563;-59
2022/05/15 00:49:09;;;;;;;9.82;4.95;;;20.10;47.20;;;;;;5081705;28;20040;-59
2022/05/15 00:51:38;;;;;;;10.57;4.70;;;20.10;47.20;;;;;;5087258;28;20016;-59
2022/05/15 00:54:16;;;;;;;14.82;4.93;;;20.20;47.10;;;;;;5092088;28;20032;-60
2022/05/15 00:57:19;;;;;;;10.82;4.03;;;20.20;47.20;;;;;;5087485;28;20024;-59
2022/05/15 00:59:55;;;;;;;10.57;3.70;;;20.20;47.20;;;;;;5068366;28;20075;-59
2022/05/15 01:02:24;;;;;;;6.43;3.80;;;20.20;47.20;;;;;;5085607;28;20025;-61
2022/05/15 01:04:51;;;;;;;10.05;3.90;;;20.20;47.20;;;;;;5092249;28;20073;-59
2022/05/15 01:07:17;;;;;;;9.45;4.20;;;20.20;47.20;;;;;;5090008;28;20032;-58
2022/05/15 01:09:42;;;;;;;9.70;3.75;;;20.20;47.30;;;;;;5088462;28;20027;-60
2022/05/15 01:12:10;;;;;;;9.95;3.75;;;20.10;47.40;;;;;;5069597;28;20137;-60
2022/05/15 01:14:38;;;;;;;7.43;3.67;;;20.10;47.50;;;;;;5094234;28;20027;-60
2022/05/15 01:17:05;;;;;;;5.32;3.22;;;20.00;47.60;;;;;;5091981;28;20385;-61
2022/05/15 01:19:32;;;;;;;7.10;3.70;;;20.00;47.70;;;;;;5090725;28;20096;-60
2022/05/15 01:22:00;;;;;;;7.43;4.00;;;20.00;47.90;;;;;;5092885;28;20338;-59
2022/05/15 01:24:27;;;;;;;11.25;4.20;;;20.00;47.90;;;;;;5090001;28;20425;-60
2022/05/15 01:26:52;;;;;;;10.00;4.22;;;20.00;48.00;;;;;;5084566;28;20024;-59
2022/05/15 01:29:26;;;;;;;9.38;3.67;;;20.00;48.00;;;;;;5069233;28;20041;-59
2022/05/15 01:31:52;;;;;;;6.03;3.65;;;20.00;48.20;;;;;;5084977;28;20055;-60
2022/05/15 01:34:18;;;;;;;10.27;3.92;;;19.90;48.30;;;;;;5088216;28;20062;-58
2022/05/15 01:36:43;;;;;;;7.70;3.95;;;19.90;48.40;;;;;;5071049;28;20774;-58
2022/05/15 01:39:09;;;;;;;8.18;3.90;;;19.80;48.70;;;;;;5088241;28;20381;-58
2022/05/15 01:41:35;;;;;;;7.35;3.53;;;19.80;48.90;;;;;;5088712;28;20112;-59
2022/05/15 01:44:00;;;;;;;7.75;3.85;;;19.80;49.10;;;;;;5091425;28;20044;-60
2022/05/15 01:46:28;;;;;;;9.07;3.80;;;19.70;49.20;;;;;;5071570;28;20031;-59
2022/05/15 01:48:54;;;;;;;8.52;3.92;;;19.70;49.30;;;;;;5070900;28;20089;-59
2022/05/15 01:51:20;;;;;;;11.23;4.10;;;19.70;49.30;;;;;;5092863;28;20113;-57
2022/05/15 01:53:46;;;;;;;7.45;3.80;;;19.70;49.50;;;;;;5089428;28;20039;-58
2022/05/15 01:56:12;;;;;;;10.05;3.95;;;19.70;49.70;;;;;;5091052;28;20412;-59
2022/05/15 01:58:38;;;;;;;9.55;4.03;;;19.60;49.80;;;;;;5071619;28;20134;-61
2022/05/15 02:01:05;;;;;;;9.68;3.40;;;19.50;50.00;;;;;;5084676;28;20473;-59
2022/05/15 02:03:30;;;;;;;9.13;4.10;;;19.50;50.20;;;;;;5071499;28;20447;-60
2022/05/15 02:05:56;;;;;;;6.50;3.90;;;19.40;50.40;;;;;;5089006;28;20024;-59
2022/05/15 02:08:22;;;;;;;10.07;4.00;;;19.40;50.60;;;;;;5089470;28;20030;-57
2022/05/15 02:10:48;;;;;;;6.00;3.55;;;19.30;50.60;;;;;;5088240;28;20085;-59
2022/05/15 02:13:15;;;;;;;8.05;3.50;;;19.30;50.70;;;;;;5086765;28;20108;-59
2022/05/15 02:15:41;;;;;;;9.68;4.05;;;19.30;50.80;;;;;;5052972;28;20028;-59
2022/05/15 02:18:07;;;;;;;8.68;3.72;;;19.30;50.90;;;;;;5085502;28;20069;-57
2022/05/15 02:20:32;;;;;;;10.63;3.85;;;19.30;51.00;;;;;;5080743;28;20020;-59
2022/05/15 02:22:58;;;;;;;6.57;4.00;;;19.20;51.00;;;;;;5084024;28;20700;-58
2022/05/15 02:25:42;;;;;;;7.68;3.97;;;19.30;51.10;;;;;;5081805;28;20032;-58
2022/05/15 02:28:09;;;;;;;13.40;4.10;;;19.30;51.70;;;;;;5085750;28;20024;-59
2022/05/15 02:30:35;;;;;;;13.85;4.20;;;19.20;51.20;;;;;;5074341;28;20099;-59
2022/05/15 02:33:01;;;;;;;9.45;3.20;;;19.10;51.30;;;;;;5079717;28;20485;-60
2022/05/15 02:35:27;;;;;;;8.13;3.72;;;19.10;51.40;;;;;;5080980;28;20482;-59
2022/05/15 02:37:52;;;;;;;12.93;3.65;;;19.10;51.40;;;;;;5078206;28;20039;-57
2022/05/15 02:40:21;;;;;;;11.32;3.78;;;19.10;51.30;;;;;;5084684;28;20043;-58
2022/05/15 02:42:46;;;;;;;7.20;3.70;;;19.10;51.30;;;;;;5086663;28;20038;-59
2022/05/15 02:45:13;;;;;;;6.53;3.33;;;19.00;51.30;;;;;;5080651;28;20587;-59
2022/05/15 02:47:39;;;;;;;7.75;3.30;;;19.00;51.30;;;;;;5082116;28;20020;-59
2022/05/15 02:52:55;;;;;;;7.38;2.80;;;18.90;51.20;;;;;;5048669;28;20541;-59
2022/05/15 02:55:23;;;;;;;6.88;3.05;;;18.90;51.80;;;;;;5073660;28;20113;-59
2022/05/15 02:57:49;;;;;;;5.75;3.00;;;18.80;51.10;;;;;;5063611;28;20028;-59
2022/05/15 03:00:16;;;;;;;6.88;3.08;;;18.80;51.10;;;;;;5081758;28;20376;-59
2022/05/15 03:02:42;;;;;;;11.02;3.08;;;18.90;51.10;;;;;;5080191;28;20020;-59
2022/05/15 03:05:11;;;;;;;5.65;2.55;;;18.90;51.00;;;;;;5082369;28;20032;-58
2022/05/15 03:07:37;;;;;;;6.30;3.00;;;18.90;51.00;;;;;;5077799;28;20043;-59
2022/05/15 03:10:04;;;;;;;7.47;2.60;;;18.90;51.00;;;;;;5080514;28;20024;-60
2022/05/15 03:12:30;;;;;;;5.13;3.00;;;18.80;51.00;;;;;;5076575;28;20114;-60
2022/05/15 03:14:56;;;;;;;8.63;2.90;;;18.90;51.00;;;;;;5076856;28;20129;-59
2022/05/15 03:17:22;;;;;;;5.88;3.13;;;18.90;51.00;;;;;;5061787;28;20096;-59
2022/05/15 03:19:47;;;;;;;7.13;3.10;;;18.90;51.00;;;;;;5079275;28;20082;-60
2022/05/15 03:22:13;;;;;;;6.63;3.05;;;18.90;51.00;;;;;;5079829;28;20016;-60
2022/05/15 03:24:39;;;;;;;7.05;3.42;;;18.90;51.00;;;;;;5076475;28;20039;-59
2022/05/15 03:27:05;;;;;;;5.75;3.13;;;18.90;51.10;;;;;;5080929;28;20063;-59
2022/05/15 03:29:31;;;;;;;5.00;2.97;;;18.80;51.20;;;;;;5077161;28;20020;-59
2022/05/15 03:31:57;;;;;;;5.47;3.28;;;18.80;51.10;;;;;;5081295;28;20050;-59
2022/05/15 03:34:23;;;;;;;8.60;2.75;;;18.80;51.30;;;;;;5079481;28;20115;-57
2022/05/15 03:37:08;;;;;;;9.32;3.30;;;18.80;51.30;;;;;;5077735;28;20080;-60
2022/05/15 03:39:34;;;;;;;8.27;3.10;;;18.70;51.30;;;;;;5080340;28;20028;-59
2022/05/15 03:42:00;;;;;;;6.65;2.97;;;18.70;51.50;;;;;;5080597;28;20012;-59
2022/05/15 03:44:26;;;;;;;5.60;3.05;;;18.70;51.60;;;;;;5057920;28;20027;-59
2022/05/15 03:46:51;;;;;;;11.32;3.00;;;18.60;51.70;;;;;;5080606;28;20036;-60
2022/05/15 03:49:17;;;;;;;10.00;3.20;;;18.60;51.80;;;;;;5080093;28;20089;-59
2022/05/15 03:51:42;;;;;;;8.30;2.80;;;18.60;51.70;;;;;;5077985;28;20036;-58
2022/05/15 03:54:09;;;;;;;5.70;2.95;;;18.70;51.70;;;;;;5075581;28;20734;-58
2022/05/15 03:56:50;;;;;;;5.65;2.92;;;18.70;51.70;;;;;;5075493;28;20032;-58
2022/05/15 03:59:27;;;;;;;8.55;3.17;;;18.70;51.70;;;;;;5077909;28;20017;-59
2022/05/15 04:01:53;;;;;;;6.60;2.70;;;18.70;51.90;;;;;;5075951;28;20032;-57
2022/05/15 04:04:20;;;;;;;9.45;3.03;;;18.70;51.80;;;;;;5076738;28;20108;-57
2022/05/15 04:06:46;;;;;;;9.13;3.38;;;18.80;51.70;;;;;;5079432;28;20024;-59
2022/05/15 04:09:12;;;;;;;9.57;3.10;;;18.80;52.20;;;;;;5078692;28;20032;-59
2022/05/15 04:11:38;;;;;;;11.23;3.38;;;18.90;51.50;;;;;;5061208;28;20032;-58
2022/05/15 04:14:04;;;;;;;5.82;2.90;;;19.00;51.40;;;;;;5080434;28;20473;-59
2022/05/15 04:16:30;;;;;;;5.22;2.72;;;19.00;51.30;;;;;;5076861;28;20024;-59
2022/05/15 04:18:56;;;;;;;7.80;3.20;;;19.00;51.20;;;;;;5078225;28;20066;-60
2022/05/15 04:21:21;;;;;;;6.22;3.20;;;19.10;51.30;;;;;;5080910;28;20028;-56
2022/05/15 04:23:47;;;;;;;6.93;3.20;;;19.10;51.20;;;;;;5073274;28;20035;-57
2022/05/15 04:26:13;;;;;;;8.88;3.15;;;19.10;51.60;;;;;;5081505;28;20027;-59
2022/05/15 04:28:39;;;;;;;4.38;2.80;;;19.20;51.00;;;;;;5074189;28;20031;-58
2022/05/15 04:31:05;;;;;;;8.23;3.50;;;19.20;51.00;;;;;;5072031;28;20484;-57
2022/05/15 04:33:32;;;;;;;6.18;3.10;;;19.20;51.00;;;;;;5078974;28;20068;-58
2022/05/15 04:35:58;;;;;;;7.63;3.40;;;19.20;50.90;;;;;;5078560;28;20071;-59
2022/05/15 04:38:24;;;;;;;6.65;3.05;;;19.20;50.90;;;;;;5081166;28;20033;-57
2022/05/15 04:40:50;;;;;;;8.65;3.63;;;19.30;50.80;;;;;;5077344;28;20107;-58
2022/05/15 04:43:16;;;;;;;7.78;3.40;;;19.30;50.80;;;;;;5074774;28;20040;-58
2022/05/15 04:45:42;;;;;;;8.80;3.92;;;19.40;50.60;;;;;;5070509;28;20183;-58
2022/05/15 04:48:10;;;;;;;9.45;3.60;;;19.60;50.40;;;;;;5055393;28;20089;-59
2022/05/15 04:50:37;;;;;;;8.20;3.50;;;19.70;50.10;;;;;;5079160;28;20032;-60
2022/05/15 04:53:06;;;;;;;5.97;3.80;;;19.90;49.80;;;;;;5079736;28;20057;-60
2022/05/15 04:55:33;;;;;;;7.60;3.05;;;20.00;49.60;;;;;;5072155;28;20024;-59
2022/05/15 04:57:58;;;;;;;6.10;3.15;;;20.00;49.40;;;;;;5078229;28;20028;-60
2022/05/15 05:00:24;;;;;;;5.97;3.30;;;20.00;49.40;;;;;;5069150;28;21389;-57
2022/05/15 05:02:50;;;;;;;8.98;3.45;;;20.00;49.30;;;;;;5081593;28;20024;-59
2022/05/15 05:05:16;;;;;;;8.88;3.38;;;20.10;49.30;;;;;;5078363;28;20069;-59
2022/05/15 05:07:42;;;;;;;7.25;3.50;;;20.20;49.20;;;;;;5081791;28;20461;-59
2022/05/15 05:10:11;;;;;;;9.68;3.13;;;20.20;49.00;;;;;;5075213;28;20039;-59
2022/05/15 05:12:36;;;;;;;9.45;3.60;;;20.30;49.00;;;;;;5076735;28;20028;-58
2022/05/15 05:15:06;;;;;;;8.30;4.03;;;20.30;48.90;;;;;;5059137;28;20158;-58
2022/05/15 05:17:32;;;;;;;5.60;3.13;;;20.40;48.80;;;;;;5062981;28;20024;-59
2022/05/15 05:19:58;;;;;;;6.80;3.30;;;20.40;49.30;;;;;;5076511;28;20027;-59
2022/05/15 05:22:23;;;;;;;6.40;3.22;;;20.40;48.50;;;;;;5079260;28;20743;-58
2022/05/15 05:24:49;;;;;;;8.07;3.60;;;20.50;48.40;;;;;;5078906;28;20036;-58
2022/05/15 05:27:15;;;;;;;10.40;3.67;;;20.60;48.20;;;;;;5080403;28;20032;-58
2022/05/15 05:29:59;;;;;;;8.60;3.50;;;20.60;48.00;;;;;;5079241;28;20032;-59
2022/05/15 05:32:25;;;;;;;9.93;3.22;;;20.70;48.00;;;;;;5078653;28;20074;-59
2022/05/15 05:34:51;;;;;;;11.70;3.58;;;20.80;48.00;;;;;;5081270;28;20036;-59
2022/05/15 05:37:17;;;;;;;6.55;3.05;;;20.90;47.80;;;;;;5084805;28;20035;-59
2022/05/15 05:39:44;;;;;;;10.10;3.95;;;21.00;47.50;;;;;;5077931;28;20031;-59
2022/05/15 05:42:10;;;;;;;9.27;3.63;;;21.10;47.30;;;;;;5061038;28;20067;-58
2022/05/15 05:44:36;;;;;;;9.18;4.03;;;21.20;47.10;;;;;;5081896;28;20043;-59
2022/05/15 05:47:02;;;;;;;10.18;3.28;;;21.30;47.00;;;;;;5084779;28;20023;-64
2022/05/15 05:49:27;;;;;;;9.65;3.78;;;21.40;46.90;;;;;;5082614;28;20037;-59
2022/05/15 05:51:53;;;;;;;9.38;3.40;;;21.40;46.70;;;;;;5080229;28;20491;-58
2022/05/15 05:54:19;;;;;;;7.15;3.50;;;21.50;46.40;;;;;;5060351;28;20032;-59
2022/05/15 05:56:44;;;;;;;6.32;3.25;;;21.50;46.20;;;;;;5082487;28;20101;-59
2022/05/15 05:59:10;;;;;;;7.65;3.83;;;21.50;46.30;;;;;;5077097;28;20024;-58
2022/05/15 06:01:35;;;;;;;5.03;3.30;;;21.60;46.30;;;;;;5088216;28;20069;-58
2022/05/15 06:06:45;;;;;;;9.63;3.90;;;21.80;46.10;;;;;;5086154;28;20089;-59
2022/05/15 06:09:11;;;;;;;5.88;4.20;;;21.80;46.10;;;;;;5081368;28;20028;-58
2022/05/15 06:11:37;;;;;;;9.75;3.95;;;21.80;46.40;;;;;;5083078;28;20035;-58
2022/05/15 06:14:03;;;;;;;11.05;4.35;;;21.90;46.40;;;;;;5049091;28;20029;-59
2022/05/15 06:16:31;;;;;;;6.93;4.07;;;22.00;46.20;;;;;;5079312;28;20057;-58
2022/05/15 06:18:58;;;;;;;10.35;4.43;;;22.00;46.20;;;;;;5080280;28;20032;-59
2022/05/15 06:21:23;;;;;;;10.55;4.15;;;22.20;46.30;;;;;;5084575;28;20035;-59
2022/05/15 06:23:49;;;;;;;7.00;4.25;;;22.30;46.00;;;;;;5078870;28;20024;-59
2022/05/15 06:26:15;;;;;;;8.98;3.90;;;22.40;45.90;;;;;;5062938;28;20029;-58
2022/05/15 06:28:40;;;;;;;7.80;4.25;;;22.40;45.90;;;;;;5082346;28;20459;-59
2022/05/15 06:31:06;;;;;;;8.75;4.25;;;22.50;45.80;;;;;;5084098;28;20036;-58
2022/05/15 06:33:32;;;;;;;8.80;3.97;;;22.50;45.90;;;;;;5081095;28;20077;-60
2022/05/15 06:35:58;;;;;;;9.90;4.55;;;22.60;45.60;;;;;;5080221;28;20060;-58
2022/05/15 06:38:25;;;;;;;12.50;4.45;;;22.60;45.50;;;;;;5079111;28;20075;-60
2022/05/15 06:40:50;;;;;;;7.07;3.72;;;22.70;45.50;;;;;;5081954;28;20024;-58
2022/05/15 06:43:16;;;;;;;8.55;4.00;;;22.80;45.50;;;;;;5082492;28;20048;-58
2022/05/15 06:45:42;;;;;;;7.43;3.78;;;22.90;45.10;;;;;;5084089;28;20024;-59
2022/05/15 06:48:08;;;;;;;9.57;4.13;;;23.00;44.60;;;;;;5078690;28;21524;-59
2022/05/15 06:50:34;;;;;;;9.85;4.57;;;23.20;44.50;;;;;;5084776;28;20028;-59
2022/05/15 06:53:00;;;;;;;9.65;4.93;;;24.40;44.10;;;;;;5079606;28;20106;-57
2022/05/15 06:55:26;;;;;;;8.35;4.30;;;27.90;39.30;;;;;;5083267;28;20108;-59
2022/05/15 06:57:52;;;;;;;10.45;4.07;;;32.10;32.70;;;;;;5079649;28;20028;-59
2022/05/15 07:00:25;;;;;;;6.05;3.50;;;35.80;29.60;;;;;;5083021;28;20031;-59
2022/05/15 07:02:51;;;;;;;9.60;4.03;;;38.90;27.40;;;;;;5078889;28;20028;-59
2022/05/15 07:05:22;;;;;;;6.38;3.65;;;41.30;25.70;;;;;;5080750;28;20027;-58
2022/05/15 07:07:48;;;;;;;7.53;3.50;;;42.70;24.70;;;;;;5079934;28;20056;-61
2022/05/15 07:10:13;;;;;;;18.50;3.78;;;44.20;23.70;;;;;;5080392;28;20145;-59
2022/05/15 07:12:39;;;;;;;9.25;3.47;;;45.80;22.90;;;;;;5081127;28;20757;-59
2022/05/15 07:15:06;;;;;;;9.38;3.63;;;47.00;22.00;;;;;;5080017;28;20028;-59
2022/05/15 07:17:32;;;;;;;7.47;3.55;;;47.40;21.60;;;;;;5061893;28;20853;-60
2022/05/15 07:19:58;;;;;;;7.28;3.67;;;48.00;21.30;;;;;;5080893;28;20024;-61
2022/05/15 07:22:24;;;;;;;10.48;4.50;;;48.30;20.70;;;;;;5080765;28;20514;-60
2022/05/15 07:24:49;;;;;;;10.40;4.80;;;48.70;20.40;;;;;;5078017;28;20020;-60
2022/05/15 07:27:15;;;;;;;7.70;3.75;;;48.90;20.20;;;;;;5080632;28;20035;-59
2022/05/15 07:29:41;;;;;;;7.35;3.85;;;49.40;20.20;;;;;;5063607;28;20024;-59
2022/05/15 07:32:08;;;;;;;22.60;4.43;;;50.10;20.00;;;;;;5081330;28;20470;-60
2022/05/15 07:34:37;;;;;;;8.43;3.83;;;50.90;19.60;;;;;;5080580;28;20103;-59
2022/05/15 07:37:04;;;;;;;7.95;3.60;;;51.20;19.60;;;;;;5083256;28;20528;-61
2022/05/15 07:39:30;;;;;;;7.25;3.50;;;51.70;19.40;;;;;;5079496;28;20035;-59
2022/05/15 07:41:56;;;;;;;19.75;17.02;;;52.00;19.20;;;;;;5079387;28;20020;-60
2022/05/15 07:44:22;;;;;;;6.25;3.17;;;52.20;19.10;;;;;;5081567;28;20079;-60
2022/05/15 07:46:48;;;;;;;9.27;3.53;;;52.30;19.20;;;;;;5064388;28;20100;-60
2022/05/15 07:49:14;;;;;;;6.35;3.88;;;52.70;19.60;;;;;;5078885;28;20052;-59
2022/05/15 07:51:44;;;;;;;8.00;3.65;;;53.20;19.00;;;;;;5061245;28;20031;-61
2022/05/15 07:54:11;;;;;;;7.80;4.18;;;53.60;18.80;;;;;;5084412;28;20440;-61
2022/05/15 07:56:37;;;;;;;7.47;4.05;;;53.60;18.80;;;;;;5068762;28;20124;-61
2022/05/15 07:59:03;;;;;;;8.73;3.95;;;53.70;18.60;;;;;;5081295;28;20443;-62
2022/05/15 08:01:29;;;;;;;6.70;3.63;;;53.50;18.70;;;;;;5080538;28;20036;-61
2022/05/15 08:03:55;;;;;;;5.85;3.92;;;52.90;18.70;;;;;;5083139;28;20043;-62
2022/05/15 08:09:08;;;;;;;7.03;4.15;;;53.00;18.90;;;;;;5085659;28;20027;-62
2022/05/15 08:11:35;;;;;;;7.95;3.78;;;53.80;18.60;;;;;;5058783;28;20074;-61
2022/05/15 08:14:01;;;;;;;6.05;3.90;;;54.40;18.50;;;;;;5090240;28;20443;-62
2022/05/15 08:16:27;;;;;;;12.10;4.00;;;54.70;18.50;;;;;;5089492;28;20035;-62
2022/05/15 08:24:22;;;;;;;8.40;4.85;;;55.00;18.20;;;;;;5072081;28;20043;-61
2022/05/15 08:26:48;;;;;;;8.60;4.40;;;55.40;18.30;;;;;;5081539;28;20028;-61
2022/05/15 08:29:14;;;;;;;7.30;4.82;;;55.80;18.10;;;;;;5074965;28;20024;-61
2022/05/15 08:31:41;;;;;;;10.45;4.80;;;56.30;17.80;;;;;;5087699;28;20031;-58
2022/05/15 08:34:07;;;;;;;10.02;4.00;;;56.00;17.70;;;;;;5088612;28;20020;-59
2022/05/15 08:36:33;;;;;;;7.40;4.72;;;55.40;17.80;;;;;;5088751;28;20100;-59
2022/05/15 08:39:00;;;;;;;11.40;5.13;;;55.70;17.80;;;;;;5089342;28;20099;-59
2022/05/15 08:41:31;;;;;;;7.68;4.80;;;56.30;17.70;;;;;;5089237;28;20031;-59
2022/05/15 08:44:14;;;;;;;8.10;4.72;;;57.00;17.60;;;;;;5089336;28;20072;-59
2022/05/15 08:46:49;;;;;;;9.90;4.45;;;57.30;17.30;;;;;;5089025;28;20035;-57
2022/05/15 08:49:33;;;;;;;9.55;4.22;;;56.90;17.10;;;;;;5080201;28;20440;-56
2022/05/15 08:52:10;;;;;;;7.18;4.35;;;55.70;17.30;;;;;;5066088;28;20239;-60
2022/05/15 08:54:53;;;;;;;7.05;5.07;;;55.00;17.50;;;;;;5083583;28;20021;-60
2022/05/15 08:57:20;;;;;;;;;;;54.20;17.40;;;;;;5078718;28;20052;-59
2022/05/15 08:59:54;;;;;;;12.27;4.97;;;53.70;17.50;;;;;;5085353;28;19911;-59
2022/05/15 09:02:21;;;;;;;7.43;4.13;;;53.00;17.60;;;;;;5080536;28;20131;-58
2022/05/15 09:04:47;;;;;;;6.57;3.13;;;52.80;17.70;;;;;;5084368;28;20016;-59
2022/05/15 09:07:37;;;;;;;7.97;2.88;;;52.20;17.30;;;;;;5079540;28;20043;-58
2022/05/15 09:10:25;;;;;;;10.05;3.60;;;51.50;17.40;;;;;;5080399;28;20097;-59
2022/05/15 09:13:09;;;;;;;6.55;2.67;;;49.60;17.80;;;;;;5086120;28;20043;-58
2022/05/15 09:15:43;;;;;;;7.25;2.80;;;46.00;18.60;;;;;;5081907;28;20027;-59
2022/05/15 09:18:16;;;;;;;7.40;4.25;;;42.50;19.40;;;;;;5081684;28;20032;-59
2022/05/15 09:20:55;;;;;;;7.65;2.97;;;39.70;20.60;;;;;;5084866;28;20056;-58
2022/05/15 09:23:38;;;;;;;9.88;4.30;;;37.60;21.50;;;;;;5080686;28;20032;-59
2022/05/15 09:26:06;;;;;;;12.50;5.10;;;35.90;22.20;;;;;;5083030;28;20039;-60
2022/05/15 09:28:45;;;;;;;8.10;2.55;;;34.70;23.00;;;;;;5078310;28;20465;-59
2022/05/15 09:31:26;;;;;;;6.68;2.78;;;33.60;23.80;;;;;;5079185;28;20492;-59
2022/05/15 09:34:03;;;;;;;12.50;4.05;;;32.40;25.10;;;;;;5081910;28;20032;-61
2022/05/15 09:36:40;;;;;;;9.25;3.40;;;31.60;26.20;;;;;;5081371;28;20038;-61
2022/05/15 09:39:18;;;;;;;9.55;3.92;;;31.00;26.40;;;;;;5081959;28;20076;-59
2022/05/15 09:44:42;;;;;;;14.10;5.47;;;30.20;27.80;;;;;;5086118;28;20214;-59
2022/05/15 09:47:14;;;;;;;11.80;3.83;;;29.90;28.40;;;;;;5065604;28;20524;-59
2022/05/15 09:49:39;;;;;;;6.85;3.10;;;29.50;28.50;;;;;;5067719;28;20031;-59
2022/05/15 09:52:18;;;;;;;14.35;7.20;;;29.40;28.60;;;;;;5078718;28;20028;-57
2022/05/15 09:54:47;;;;;;;7.88;3.63;;;29.30;28.90;;;;;;5081901;28;20187;-60
2022/05/15 09:57:26;;;;;;;8.73;3.28;;;29.30;27.80;;;;;;5084970;28;20043;-56
2022/05/15 09:59:51;;;;;;;10.57;5.43;;;29.00;27.90;;;;;;5084676;28;20024;-59
2022/05/15 10:02:20;;;;;;;10.43;6.13;;;29.00;27.60;;;;;;5078473;28;20029;-58
2022/05/15 10:04:51;;;;;;;7.70;3.22;;;28.80;28.10;;;;;;5084585;28;20036;-60
2022/05/15 10:07:38;;;;;;;16.27;6.60;;;28.60;28.30;;;;;;5082072;28;20753;-57
2022/05/15 10:10:24;;;;;;;11.38;5.50;;;28.60;28.10;;;;;;5082242;28;20397;-61
2022/05/15 10:12:54;;;;;;;12.00;4.85;;;28.40;28.10;;;;;;5083266;28;20024;-58
2022/05/15 10:15:21;;;;;;;8.43;3.00;;;28.30;28.60;;;;;;5078586;28;20040;-60
2022/05/15 10:17:55;;;;;;;13.00;6.90;;;28.30;29.10;;;;;;5086202;28;20031;-60
2022/05/15 10:20:29;;;;;;;11.88;5.03;;;28.20;29.20;;;;;;5067992;28;20485;-60
2022/05/15 10:23:18;;;;;;;7.60;3.15;;;28.20;29.30;;;;;;5081433;28;20066;-59
2022/05/15 10:26:07;;;;;;;10.20;3.10;;;28.10;29.50;;;;;;5062385;28;20028;-59
2022/05/15 10:28:42;;;;;;;10.35;3.58;;;28.20;29.80;;;;;;5090050;28;20028;-60
2022/05/15 10:31:19;;;;;;;8.63;2.90;;;28.20;29.80;;;;;;5086061;28;20111;-59
2022/05/15 10:33:52;;;;;;;8.95;3.65;;;28.30;29.50;;;;;;5077956;28;20023;-59
2022/05/15 10:36:27;;;;;;;11.10;3.25;;;28.10;29.80;;;;;;5062298;28;20097;-55
2022/05/15 10:38:59;;;;;;;8.02;3.28;;;28.20;29.90;;;;;;5058031;28;20024;-60
2022/05/15 10:41:29;;;;;;;10.70;2.63;;;28.20;29.90;;;;;;5086790;28;20051;-55
2022/05/15 10:44:04;;;;;;;10.73;2.63;;;28.30;29.80;;;;;;5092205;28;20062;-60
2022/05/15 10:46:58;;;;;;;8.13;2.80;;;28.40;29.70;;;;;;5080136;28;20028;-60
2022/05/15 10:49:41;;;;;;;7.57;4.00;;;28.30;29.60;;;;;;5072586;28;20032;-60
2022/05/15 10:52:21;;;;;;;10.45;3.70;;;28.50;29.80;;;;;;5061612;28;20278;-60
2022/05/15 10:58:02;;;;;;;9.77;4.57;;;28.70;30.10;;;;;;5086190;28;20140;-60
2022/05/15 11:00:41;;;;;;;9.93;3.00;;;28.70;30.20;;;;;;5081062;28;20016;-60
2022/05/15 11:03:29;;;;;;;5.38;2.53;;;28.70;29.90;;;;;;5081177;28;20024;-60
2022/05/15 11:05:54;;;;;;;8.63;2.63;;;28.70;29.80;;;;;;5082390;28;20025;-61
2022/05/15 11:08:48;;;;;;;6.57;2.65;;;28.50;30.00;;;;;;5082383;28;20478;-58
2022/05/15 11:11:14;;;;;;;6.50;2.97;;;28.50;30.50;;;;;;5074736;28;20044;-61
2022/05/15 11:13:52;;;;;;;6.18;3.17;;;28.60;30.30;;;;;;5072705;28;20063;-60
2022/05/15 11:16:43;;;;;;;7.78;3.05;;;28.70;30.30;;;;;;5091275;28;20019;-57
2022/05/15 11:19:22;;;;;;;10.23;3.45;;;28.70;30.40;;;;;;5072690;28;20048;-60
2022/05/15 11:22:06;;;;;;;10.75;3.10;;;28.70;30.90;;;;;;5073420;28;20111;-60
2022/05/15 11:24:52;;;;;;;8.25;3.38;;;28.70;30.30;;;;;;5061770;28;20043;-59
2022/05/15 11:27:54;;;;;;;12.68;2.85;;;28.70;30.20;;;;;;5079571;28;20039;-57
2022/05/15 11:30:31;;;;;;;6.70;3.53;;;28.60;30.30;;;;;;5089294;28;20476;-56
2022/05/15 11:33:05;;;;;;;9.55;3.33;;;28.70;30.30;;;;;;5080729;28;20039;-59
2022/05/15 11:35:33;;;;;;;;;;;28.70;30.60;;;;;;5064941;28;20020;-60
2022/05/15 11:38:04;;;;;;;9.07;3.42;;;28.90;30.40;;;;;;5087384;28;19908;-61
2022/05/15 11:40:49;;;;;;;7.15;3.60;;;29.00;30.00;;;;;;5066074;28;20481;-62
2022/05/15 11:43:28;;;;;;;10.55;3.83;;;29.00;29.90;;;;;;5084421;28;20079;-59
2022/05/15 11:46:11;;;;;;;9.18;3.45;;;29.10;30.00;;;;;;5068381;28;20024;-60
2022/05/15 11:48:39;;;;;;;6.53;2.92;;;29.20;29.80;;;;;;5067678;28;20121;-59
2022/05/15 11:51:12;;;;;;;7.65;3.08;;;29.30;29.70;;;;;;5078804;28;20444;-61
2022/05/15 11:54:08;;;;;;;9.38;5.82;;;29.30;29.70;;;;;;5078621;28;20020;-61
2022/05/15 11:56:41;;;;;;;15.55;7.88;;;29.30;29.70;;;;;;5056882;28;20027;-61
2022/05/15 11:59:15;;;;;;;6.57;3.45;;;29.50;29.80;;;;;;5084845;28;20024;-61
2022/05/15 12:01:53;;;;;;;9.40;2.78;;;29.50;29.90;;;;;;5078394;28;20678;-60
2022/05/15 12:04:38;;;;;;;10.38;2.50;;;29.50;29.80;;;;;;5083493;28;20020;-60
2022/05/15 12:07:04;;;;;;;15.25;5.78;;;29.40;29.50;;;;;;5083515;28;20492;-62
2022/05/15 12:09:33;;;;;;;7.00;2.85;;;29.40;29.60;;;;;;5089918;28;20020;-61
2022/05/15 12:12:23;;;;;;;9.25;4.20;;;29.50;29.70;;;;;;5090185;28;20012;-59
2022/05/15 12:15:24;;;;;;;10.55;3.83;;;29.60;29.60;;;;;;5086569;28;20032;-62
2022/05/15 12:17:50;;;;;;;17.92;9.85;;;29.60;29.60;;;;;;5088565;28;20030;-60
2022/05/15 12:20:21;;;;;;;9.13;5.28;;;29.70;29.50;;;;;;5090738;28;20091;-60
2022/05/15 12:22:59;;;;;;;11.25;4.15;;;29.40;29.80;;;;;;5075596;28;20040;-62
2022/05/15 12:25:31;;;;;;;10.52;3.10;;;29.50;29.70;;;;;;5069521;28;20062;-58
2022/05/15 12:30:49;;;;;;;6.85;3.35;;;29.60;29.40;;;;;;5079892;28;20089;-60
2022/05/15 12:33:27;;;;;;;12.35;5.15;;;29.70;29.10;;;;;;5066922;28;20024;-60
2022/05/15 12:35:54;;;;;;;7.20;2.70;;;29.60;29.30;;;;;;5089913;28;20030;-61
2022/05/15 12:38:26;;;;;;;6.70;2.53;;;29.80;29.20;;;;;;5088172;28;20111;-60
2022/05/15 12:41:08;;;;;;;9.07;5.07;;;29.80;29.00;;;;;;5060608;28;20123;-58
2022/05/15 12:43:44;;;;;;;9.18;4.20;;;29.80;28.90;;;;;;5082230;28;20123;-60
2022/05/15 12:46:23;;;;;;;13.98;6.78;;;30.00;29.00;;;;;;5086529;28;20447;-62
2022/05/15 12:48:49;;;;;;;8.18;2.72;;;29.90;28.70;;;;;;5070172;28;20076;-60
2022/05/15 12:51:16;;;;;;;5.50;2.65;;;29.70;28.80;;;;;;5089777;28;20022;-61
2022/05/15 12:53:44;;;;;;;7.40;3.10;;;29.70;29.00;;;;;;5089162;28;20024;-61
2022/05/15 12:56:25;;;;;;;10.38;3.78;;;29.70;29.00;;;;;;5070383;28;20035;-61
2022/05/15 12:58:58;;;;;;;7.50;2.42;;;29.80;29.00;;;;;;5089355;28;20046;-60
2022/05/15 13:01:27;;;;;;;8.50;2.20;;;29.90;28.80;;;;;;5063713;28;20351;-59
2022/05/15 13:03:56;;;;;;;7.10;2.42;;;30.10;28.70;;;;;;5071840;28;20054;-60
2022/05/15 13:06:32;;;;;;;8.82;2.70;;;30.20;28.60;;;;;;5071450;28;20054;-60
2022/05/15 13:09:01;;;;;;;11.00;2.80;;;30.30;28.80;;;;;;5088709;28;20050;-61
2022/05/15 13:11:45;;;;;;;6.65;3.33;;;30.20;28.50;;;;;;5080173;28;20508;-58
2022/05/15 13:14:31;;;;;;;14.40;7.90;;;30.10;28.60;;;;;;5087423;28;20119;-60
2022/05/15 13:16:58;;;;;;;6.95;2.83;;;29.80;28.40;;;;;;5078466;28;20033;-61
2022/05/15 13:19:45;;;;;;;9.20;3.70;;;29.60;28.40;;;;;;5089657;28;20027;-60
2022/05/15 13:22:17;;;;;;;9.82;4.47;;;29.60;28.80;;;;;;5088284;28;20024;-60
2022/05/15 13:24:43;;;;;;;8.88;3.05;;;29.60;28.80;;;;;;5068520;28;20028;-59